sensor_id;sensor_type;location;lat;lon;timestamp;temperature;humidity
2260;DHT22;333;48.800;9.530;2024-03-02T00:01:35;4.10;99.60
2260;DHT22;333;48.800;9.530;2024-03-02T00:04:04;4.40;99.60
2260;DHT22;333;48.800;9.530;2024-03-02T00:06:34;4.30;99.60
2260;DHT22;333;48.800;9.530;2024-03-02T00:09:01;4.10;99.60
2260;DHT22;333;48.800;9.530;2024-03-02T00:11:28;4.00;99.60
2260;DHT22;333;48.800;9.530;2024-03-02T00:13:55;4.10;99.60
2260;DHT22;333;48.800;9.530;2024-03-02T00:16:22;4.20;99.60
2260;DHT22;333;48.800;9.530;2024-03-02T00:18:50;4.10;99.60
2260;DHT22;333;48.800;9.530;2024-03-02T00:21:17;4.00;99.60
2260;DHT22;333;48.800;9.530;2024-03-02T00:23:48;4.10;99.60
2260;DHT22;333;48.800;9.530;2024-03-02T00:26:16;4.00;99.60
2260;DHT22;333;48.800;9.530;2024-03-02T00:28:43;4.00;99.60
2260;DHT22;333;48.800;9.530;2024-03-02T00:31:12;4.10;99.60
2260;DHT22;333;48.800;9.530;2024-03-02T00:33:41;4.00;99.60
2260;DHT22;333;48.800;9.530;2024-03-02T00:36:09;3.90;99.60
2260;DHT22;333;48.800;9.530;2024-03-02T00:38:44;3.80;99.60
2260;DHT22;333;48.800;9.530;2024-03-02T00:41:20;3.90;99.60
2260;DHT22;333;48.800;9.530;2024-03-02T00:43:58;3.90;99.60
2260;DHT22;333;48.800;9.530;2024-03-02T00:46:27;4.10;99.60
2260;DHT22;333;48.800;9.530;2024-03-02T00:48:57;4.10;99.60
2260;DHT22;333;48.800;9.530;2024-03-02T00:51:25;4.00;99.60
2260;DHT22;333;48.800;9.530;2024-03-02T00:53:54;3.90;99.60
2260;DHT22;333;48.800;9.530;2024-03-02T00:56:24;3.90;99.60
2260;DHT22;333;48.800;9.530;2024-03-02T00:58:52;3.90;99.60
2260;DHT22;333;48.800;9.530;2024-03-02T01:01:19;3.90;99.60
2260;DHT22;333;48.800;9.530;2024-03-02T01:03:46;3.90;99.60
2260;DHT22;333;48.800;9.530;2024-03-02T01:06:14;3.80;99.60
2260;DHT22;333;48.800;9.530;2024-03-02T01:08:42;3.90;99.60
2260;DHT22;333;48.800;9.530;2024-03-02T01:11:09;3.90;99.60
2260;DHT22;333;48.800;9.530;2024-03-02T01:13:37;3.80;99.60
2260;DHT22;333;48.800;9.530;2024-03-02T01:16:04;3.90;99.60
2260;DHT22;333;48.800;9.530;2024-03-02T01:18:32;3.90;99.60
2260;DHT22;333;48.800;9.530;2024-03-02T01:20:59;3.80;99.60
2260;DHT22;333;48.800;9.530;2024-03-02T01:23:27;3.80;99.60
2260;DHT22;333;48.800;9.530;2024-03-02T01:25:54;3.90;99.60
2260;DHT22;333;48.800;9.530;2024-03-02T01:28:21;3.90;99.60
2260;DHT22;333;48.800;9.530;2024-03-02T01:30:50;3.80;99.60
2260;DHT22;333;48.800;9.530;2024-03-02T01:33:17;3.80;99.60
2260;DHT22;333;48.800;9.530;2024-03-02T01:35:44;3.70;99.60
2260;DHT22;333;48.800;9.530;2024-03-02T01:38:11;3.90;99.60
2260;DHT22;333;48.800;9.530;2024-03-02T01:40:38;3.90;99.60
2260;DHT22;333;48.800;9.530;2024-03-02T01:43:05;3.80;99.60
2260;DHT22;333;48.800;9.530;2024-03-02T01:45:33;3.90;99.60
2260;DHT22;333;48.800;9.530;2024-03-02T01:48:00;3.90;99.60
2260;DHT22;333;48.800;9.530;2024-03-02T01:50:31;3.90;99.60
2260;DHT22;333;48.800;9.530;2024-03-02T01:52:58;3.90;99.60
2260;DHT22;333;48.800;9.530;2024-03-02T01:55:26;4.00;99.60
2260;DHT22;333;48.800;9.530;2024-03-02T01:57:54;3.90;99.60
2260;DHT22;333;48.800;9.530;2024-03-02T02:00:22;4.00;99.60
2260;DHT22;333;48.800;9.530;2024-03-02T02:02:50;3.90;99.60
2260;DHT22;333;48.800;9.530;2024-03-02T02:05:19;4.00;99.60
2260;DHT22;333;48.800;9.530;2024-03-02T02:07:46;3.90;99.60
2260;DHT22;333;48.800;9.530;2024-03-02T02:10:13;3.80;99.60
2260;DHT22;333;48.800;9.530;2024-03-02T02:12:40;3.80;99.60
2260;DHT22;333;48.800;9.530;2024-03-02T02:15:22;3.70;99.60
2260;DHT22;333;48.800;9.530;2024-03-02T02:17:49;3.60;99.60
2260;DHT22;333;48.800;9.530;2024-03-02T02:20:16;3.60;99.60
2260;DHT22;333;48.800;9.530;2024-03-02T02:22:55;3.70;99.60
2260;DHT22;333;48.800;9.530;2024-03-02T02:25:22;3.90;99.60
2260;DHT22;333;48.800;9.530;2024-03-02T02:27:49;3.80;99.60
2260;DHT22;333;48.800;9.530;2024-03-02T02:30:19;3.80;99.60
2260;DHT22;333;48.800;9.530;2024-03-02T02:32:46;3.60;99.60
2260;DHT22;333;48.800;9.530;2024-03-02T02:35:13;3.70;99.60
2260;DHT22;333;48.800;9.530;2024-03-02T02:37:41;3.90;99.60
2260;DHT22;333;48.800;9.530;2024-03-02T02:40:10;3.90;99.60
2260;DHT22;333;48.800;9.530;2024-03-02T02:42:38;3.80;99.60
2260;DHT22;333;48.800;9.530;2024-03-02T02:45:05;3.70;99.60
2260;DHT22;333;48.800;9.530;2024-03-02T02:47:33;3.50;99.60
2260;DHT22;333;48.800;9.530;2024-03-02T02:50:01;3.50;99.60
2260;DHT22;333;48.800;9.530;2024-03-02T02:52:31;3.40;99.60
2260;DHT22;333;48.800;9.530;2024-03-02T02:55:02;3.30;99.60
2260;DHT22;333;48.800;9.530;2024-03-02T02:57:31;3.40;99.60
2260;DHT22;333;48.800;9.530;2024-03-02T03:00:01;3.60;99.60
2260;DHT22;333;48.800;9.530;2024-03-02T03:02:36;3.60;99.60
2260;DHT22;333;48.800;9.530;2024-03-02T03:05:03;3.40;99.60
2260;DHT22;333;48.800;9.530;2024-03-02T03:07:31;3.30;99.60
2260;DHT22;333;48.800;9.530;2024-03-02T03:09:57;3.20;99.60
2260;DHT22;333;48.800;9.530;2024-03-02T03:12:24;3.10;99.60
2260;DHT22;333;48.800;9.530;2024-03-02T03:14:52;3.20;99.60
2260;DHT22;333;48.800;9.530;2024-03-02T03:17:20;3.20;99.60
2260;DHT22;333;48.800;9.530;2024-03-02T03:19:47;3.10;99.60
2260;DHT22;333;48.800;9.530;2024-03-02T03:22:14;3.10;99.60
2260;DHT22;333;48.800;9.530;2024-03-02T03:24:41;3.10;99.60
2260;DHT22;333;48.800;9.530;2024-03-02T03:27:09;3.00;99.60
2260;DHT22;333;48.800;9.530;2024-03-02T03:29:36;2.90;99.60
2260;DHT22;333;48.800;9.530;2024-03-02T03:32:05;2.90;99.60
2260;DHT22;333;48.800;9.530;2024-03-02T03:34:32;3.00;99.60
2260;DHT22;333;48.800;9.530;2024-03-02T03:36:59;3.20;99.60
2260;DHT22;333;48.800;9.530;2024-03-02T03:39:26;3.10;99.60
2260;DHT22;333;48.800;9.530;2024-03-02T03:41:54;3.10;99.60
2260;DHT22;333;48.800;9.530;2024-03-02T03:44:21;3.00;99.60
2260;DHT22;333;48.800;9.530;2024-03-02T03:46:47;3.00;99.60
2260;DHT22;333;48.800;9.530;2024-03-02T03:49:16;3.00;99.60
2260;DHT22;333;48.800;9.530;2024-03-02T03:51:43;3.00;99.60
2260;DHT22;333;48.800;9.530;2024-03-02T03:54:10;2.90;99.60
2260;DHT22;333;48.800;9.530;2024-03-02T03:56:37;2.90;99.60
2260;DHT22;333;48.800;9.530;2024-03-02T03:59:04;2.90;99.60
2260;DHT22;333;48.800;9.530;2024-03-02T04:01:32;2.90;99.60
2260;DHT22;333;48.800;9.530;2024-03-02T04:03:59;2.90;99.60
2260;DHT22;333;48.800;9.530;2024-03-02T04:06:29;3.00;99.60
2260;DHT22;333;48.800;9.530;2024-03-02T04:08:56;3.00;99.60
2260;DHT22;333;48.800;9.530;2024-03-02T04:11:23;3.10;99.60
2260;DHT22;333;48.800;9.530;2024-03-02T04:13:50;3.10;99.60
2260;DHT22;333;48.800;9.530;2024-03-02T04:16:17;3.10;99.60
2260;DHT22;333;48.800;9.530;2024-03-02T04:18:44;3.10;99.60
2260;DHT22;333;48.800;9.530;2024-03-02T04:21:11;3.20;99.60
2260;DHT22;333;48.800;9.530;2024-03-02T04:23:39;3.10;99.60
2260;DHT22;333;48.800;9.530;2024-03-02T04:26:06;3.20;99.60
2260;DHT22;333;48.800;9.530;2024-03-02T04:28:33;3.10;99.60
2260;DHT22;333;48.800;9.530;2024-03-02T04:31:00;3.20;99.60
2260;DHT22;333;48.800;9.530;2024-03-02T04:33:27;3.10;99.60
2260;DHT22;333;48.800;9.530;2024-03-02T04:35:54;3.10;99.60
2260;DHT22;333;48.800;9.530;2024-03-02T04:38:21;3.00;99.60
2260;DHT22;333;48.800;9.530;2024-03-02T04:40:49;3.00;99.60
2260;DHT22;333;48.800;9.530;2024-03-02T04:43:16;3.00;99.60
2260;DHT22;333;48.800;9.530;2024-03-02T04:45:44;2.90;99.60
2260;DHT22;333;48.800;9.530;2024-03-02T04:48:11;2.90;99.60
2260;DHT22;333;48.800;9.530;2024-03-02T04:50:38;2.80;99.60
2260;DHT22;333;48.800;9.530;2024-03-02T04:53:06;2.80;99.60
2260;DHT22;333;48.800;9.530;2024-03-02T04:55:33;2.90;99.60
2260;DHT22;333;48.800;9.530;2024-03-02T04:58:30;2.90;99.60
2260;DHT22;333;48.800;9.530;2024-03-02T05:00:57;3.00;99.60
2260;DHT22;333;48.800;9.530;2024-03-02T05:03:24;2.90;99.60
2260;DHT22;333;48.800;9.530;2024-03-02T05:05:51;2.90;99.60
2260;DHT22;333;48.800;9.530;2024-03-02T05:08:18;2.90;99.60
2260;DHT22;333;48.800;9.530;2024-03-02T05:10:45;2.80;99.60
2260;DHT22;333;48.800;9.530;2024-03-02T05:13:12;2.90;99.60
2260;DHT22;333;48.800;9.530;2024-03-02T05:15:39;2.80;99.60
2260;DHT22;333;48.800;9.530;2024-03-02T05:18:06;2.80;99.60
2260;DHT22;333;48.800;9.530;2024-03-02T05:20:33;2.70;99.60
2260;DHT22;333;48.800;9.530;2024-03-02T05:23:00;2.80;99.60
2260;DHT22;333;48.800;9.530;2024-03-02T05:25:27;2.90;99.60
2260;DHT22;333;48.800;9.530;2024-03-02T05:27:54;3.00;99.60
2260;DHT22;333;48.800;9.530;2024-03-02T05:30:21;2.80;99.60
2260;DHT22;333;48.800;9.530;2024-03-02T05:32:49;3.00;99.60
2260;DHT22;333;48.800;9.530;2024-03-02T05:35:16;2.80;99.60
2260;DHT22;333;48.800;9.530;2024-03-02T05:37:44;2.90;99.60
2260;DHT22;333;48.800;9.530;2024-03-02T05:40:11;2.70;99.60
2260;DHT22;333;48.800;9.530;2024-03-02T05:42:38;2.60;99.60
2260;DHT22;333;48.800;9.530;2024-03-02T05:45:07;2.40;99.60
2260;DHT22;333;48.800;9.530;2024-03-02T05:47:34;2.20;99.60
2260;DHT22;333;48.800;9.530;2024-03-02T05:50:03;2.30;99.60
2260;DHT22;333;48.800;9.530;2024-03-02T05:52:30;2.20;99.60
2260;DHT22;333;48.800;9.530;2024-03-02T05:54:57;2.20;99.60
2260;DHT22;333;48.800;9.530;2024-03-02T05:57:24;2.30;99.60
2260;DHT22;333;48.800;9.530;2024-03-02T06:00:11;2.40;99.60
2260;DHT22;333;48.800;9.530;2024-03-02T06:02:39;2.60;99.60
2260;DHT22;333;48.800;9.530;2024-03-02T06:05:08;2.50;99.60
2260;DHT22;333;48.800;9.530;2024-03-02T06:07:35;2.60;99.60
2260;DHT22;333;48.800;9.530;2024-03-02T06:10:03;2.70;99.60
2260;DHT22;333;48.800;9.530;2024-03-02T06:12:31;2.80;99.60
2260;DHT22;333;48.800;9.530;2024-03-02T06:14:58;2.90;99.60
2260;DHT22;333;48.800;9.530;2024-03-02T06:17:25;3.00;99.60
2260;DHT22;333;48.800;9.530;2024-03-02T06:19:52;2.90;99.60
2260;DHT22;333;48.800;9.530;2024-03-02T06:22:20;3.00;99.60
2260;DHT22;333;48.800;9.530;2024-03-02T06:24:50;3.10;99.60
2260;DHT22;333;48.800;9.530;2024-03-02T06:27:17;3.00;99.60
2260;DHT22;333;48.800;9.530;2024-03-02T06:29:44;2.90;99.60
2260;DHT22;333;48.800;9.530;2024-03-02T06:32:11;2.90;99.60
2260;DHT22;333;48.800;9.530;2024-03-02T06:34:38;2.90;99.60
2260;DHT22;333;48.800;9.530;2024-03-02T06:37:05;2.90;99.60
2260;DHT22;333;48.800;9.530;2024-03-02T06:39:33;2.80;99.60
2260;DHT22;333;48.800;9.530;2024-03-02T06:42:01;2.80;99.60
2260;DHT22;333;48.800;9.530;2024-03-02T06:44:28;2.70;99.60
2260;DHT22;333;48.800;9.530;2024-03-02T06:46:55;2.70;99.60
2260;DHT22;333;48.800;9.530;2024-03-02T06:49:22;2.70;99.60
2260;DHT22;333;48.800;9.530;2024-03-02T06:51:49;2.70;99.60
2260;DHT22;333;48.800;9.530;2024-03-02T06:54:16;2.70;99.60
2260;DHT22;333;48.800;9.530;2024-03-02T06:56:44;2.70;99.60
2260;DHT22;333;48.800;9.530;2024-03-02T06:59:12;2.70;99.60
2260;DHT22;333;48.800;9.530;2024-03-02T07:01:39;2.60;99.60
2260;DHT22;333;48.800;9.530;2024-03-02T07:04:06;2.70;99.60
2260;DHT22;333;48.800;9.530;2024-03-02T07:06:33;2.70;99.60
2260;DHT22;333;48.800;9.530;2024-03-02T07:09:00;2.70;99.60
2260;DHT22;333;48.800;9.530;2024-03-02T07:11:27;2.80;99.60
2260;DHT22;333;48.800;9.530;2024-03-02T07:13:55;3.00;99.60
2260;DHT22;333;48.800;9.530;2024-03-02T07:16:22;3.20;99.60
2260;DHT22;333;48.800;9.530;2024-03-02T07:18:54;3.20;99.60
2260;DHT22;333;48.800;9.530;2024-03-02T07:21:22;3.30;99.60
2260;DHT22;333;48.800;9.530;2024-03-02T07:23:49;3.30;99.60
2260;DHT22;333;48.800;9.530;2024-03-02T07:26:17;3.30;99.60
2260;DHT22;333;48.800;9.530;2024-03-02T07:28:45;3.40;99.60
2260;DHT22;333;48.800;9.530;2024-03-02T07:31:15;3.30;99.60
2260;DHT22;333;48.800;9.530;2024-03-02T07:33:44;3.50;99.60
2260;DHT22;333;48.800;9.530;2024-03-02T07:36:12;3.60;99.60
2260;DHT22;333;48.800;9.530;2024-03-02T07:38:39;3.60;99.60
2260;DHT22;333;48.800;9.530;2024-03-02T07:41:06;3.70;99.60
2260;DHT22;333;48.800;9.530;2024-03-02T07:43:34;3.80;99.60
2260;DHT22;333;48.800;9.530;2024-03-02T07:46:01;3.90;99.60
2260;DHT22;333;48.800;9.530;2024-03-02T07:48:30;3.90;99.60
2260;DHT22;333;48.800;9.530;2024-03-02T07:50:57;4.10;99.60
2260;DHT22;333;48.800;9.530;2024-03-02T07:53:24;4.20;99.60
2260;DHT22;333;48.800;9.530;2024-03-02T07:55:52;4.30;99.60
2260;DHT22;333;48.800;9.530;2024-03-02T07:58:19;4.40;99.60
2260;DHT22;333;48.800;9.530;2024-03-02T08:00:46;4.40;99.60
2260;DHT22;333;48.800;9.530;2024-03-02T08:03:13;4.40;99.60
2260;DHT22;333;48.800;9.530;2024-03-02T08:05:42;4.60;99.60
2260;DHT22;333;48.800;9.530;2024-03-02T08:08:09;4.60;99.60
2260;DHT22;333;48.800;9.530;2024-03-02T08:10:37;4.90;99.60
2260;DHT22;333;48.800;9.530;2024-03-02T08:13:04;5.00;99.60
2260;DHT22;333;48.800;9.530;2024-03-02T08:15:31;5.00;99.60
2260;DHT22;333;48.800;9.530;2024-03-02T08:17:58;5.10;99.60
2260;DHT22;333;48.800;9.530;2024-03-02T08:20:25;5.30;99.60
2260;DHT22;333;48.800;9.530;2024-03-02T08:22:53;5.70;99.60
2260;DHT22;333;48.800;9.530;2024-03-02T08:25:21;5.70;99.60
2260;DHT22;333;48.800;9.530;2024-03-02T08:27:48;5.70;99.60
2260;DHT22;333;48.800;9.530;2024-03-02T08:30:15;5.80;99.60
2260;DHT22;333;48.800;9.530;2024-03-02T08:32:43;5.90;99.60
2260;DHT22;333;48.800;9.530;2024-03-02T08:35:10;6.10;99.60
2260;DHT22;333;48.800;9.530;2024-03-02T08:37:39;6.10;99.60
2260;DHT22;333;48.800;9.530;2024-03-02T08:40:10;5.90;99.60
2260;DHT22;333;48.800;9.530;2024-03-02T08:42:38;5.90;99.60
2260;DHT22;333;48.800;9.530;2024-03-02T08:45:05;5.90;99.60
2260;DHT22;333;48.800;9.530;2024-03-02T08:47:33;6.00;99.60
2260;DHT22;333;48.800;9.530;2024-03-02T08:50:00;6.30;99.60
2260;DHT22;333;48.800;9.530;2024-03-02T08:52:27;6.60;99.60
2260;DHT22;333;48.800;9.530;2024-03-02T08:54:54;6.80;99.60
2260;DHT22;333;48.800;9.530;2024-03-02T08:57:22;7.10;99.60
2260;DHT22;333;48.800;9.530;2024-03-02T08:59:49;7.30;99.60
2260;DHT22;333;48.800;9.530;2024-03-02T09:02:17;7.20;99.60
2260;DHT22;333;48.800;9.530;2024-03-02T09:04:44;7.20;99.60
2260;DHT22;333;48.800;9.530;2024-03-02T09:07:11;7.30;99.60
2260;DHT22;333;48.800;9.530;2024-03-02T09:09:38;7.40;99.60
2260;DHT22;333;48.800;9.530;2024-03-02T09:12:05;7.50;99.60
2260;DHT22;333;48.800;9.530;2024-03-02T09:17:02;7.70;99.60
2260;DHT22;333;48.800;9.530;2024-03-02T09:19:29;7.80;99.60
2260;DHT22;333;48.800;9.530;2024-03-02T09:21:56;8.00;99.60
2260;DHT22;333;48.800;9.530;2024-03-02T09:24:24;8.10;99.60
2260;DHT22;333;48.800;9.530;2024-03-02T09:26:51;8.00;99.60
2260;DHT22;333;48.800;9.530;2024-03-02T09:29:18;8.10;99.60
2260;DHT22;333;48.800;9.530;2024-03-02T09:31:47;8.10;99.60
2260;DHT22;333;48.800;9.530;2024-03-02T09:34:15;8.20;99.60
2260;DHT22;333;48.800;9.530;2024-03-02T09:36:42;8.40;99.60
2260;DHT22;333;48.800;9.530;2024-03-02T09:39:09;8.50;99.60
2260;DHT22;333;48.800;9.530;2024-03-02T09:41:36;8.70;99.60
2260;DHT22;333;48.800;9.530;2024-03-02T09:44:04;8.90;99.60
2260;DHT22;333;48.800;9.530;2024-03-02T09:46:31;9.20;99.60
2260;DHT22;333;48.800;9.530;2024-03-02T09:49:00;9.40;99.60
2260;DHT22;333;48.800;9.530;2024-03-02T09:51:27;9.70;99.60
2260;DHT22;333;48.800;9.530;2024-03-02T09:53:55;9.90;99.60
2260;DHT22;333;48.800;9.530;2024-03-02T09:56:22;10.00;99.60
2260;DHT22;333;48.800;9.530;2024-03-02T09:58:49;10.30;99.60
2260;DHT22;333;48.800;9.530;2024-03-02T10:01:17;10.50;99.60
2260;DHT22;333;48.800;9.530;2024-03-02T10:03:45;10.80;99.60
2260;DHT22;333;48.800;9.530;2024-03-02T10:06:21;11.10;99.60
2260;DHT22;333;48.800;9.530;2024-03-02T10:08:48;11.40;99.60
2260;DHT22;333;48.800;9.530;2024-03-02T10:11:28;11.60;99.60
2260;DHT22;333;48.800;9.530;2024-03-02T10:14:14;11.90;99.60
2260;DHT22;333;48.800;9.530;2024-03-02T10:16:42;12.30;99.60
2260;DHT22;333;48.800;9.530;2024-03-02T10:19:17;12.40;99.60
2260;DHT22;333;48.800;9.530;2024-03-02T10:21:46;12.40;99.60
2260;DHT22;333;48.800;9.530;2024-03-02T10:24:13;12.40;99.60
2260;DHT22;333;48.800;9.530;2024-03-02T10:26:40;12.80;99.60
2260;DHT22;333;48.800;9.530;2024-03-02T10:29:08;13.10;99.60
2260;DHT22;333;48.800;9.530;2024-03-02T10:31:37;13.20;99.60
2260;DHT22;333;48.800;9.530;2024-03-02T10:34:04;13.20;99.60
2260;DHT22;333;48.800;9.530;2024-03-02T10:36:32;13.10;99.60
2260;DHT22;333;48.800;9.530;2024-03-02T10:39:02;13.00;99.60
2260;DHT22;333;48.800;9.530;2024-03-02T10:41:32;12.90;99.60
2260;DHT22;333;48.800;9.530;2024-03-02T10:43:59;13.50;99.60
2260;DHT22;333;48.800;9.530;2024-03-02T10:46:29;13.80;99.60
2260;DHT22;333;48.800;9.530;2024-03-02T10:48:56;14.10;99.60
2260;DHT22;333;48.800;9.530;2024-03-02T10:51:24;14.30;99.60
2260;DHT22;333;48.800;9.530;2024-03-02T10:53:53;14.50;99.60
2260;DHT22;333;48.800;9.530;2024-03-02T10:56:27;14.50;99.60
2260;DHT22;333;48.800;9.530;2024-03-02T10:58:59;14.10;99.60
2260;DHT22;333;48.800;9.530;2024-03-02T11:01:30;13.80;99.60
2260;DHT22;333;48.800;9.530;2024-03-02T11:03:58;14.20;99.60
2260;DHT22;333;48.800;9.530;2024-03-02T11:06:28;14.40;99.60
2260;DHT22;333;48.800;9.530;2024-03-02T11:08:58;14.80;99.60
2260;DHT22;333;48.800;9.530;2024-03-02T11:11:32;15.10;99.60
2260;DHT22;333;48.800;9.530;2024-03-02T11:14:04;15.00;99.60
2260;DHT22;333;48.800;9.530;2024-03-02T11:16:36;15.00;99.60
2260;DHT22;333;48.800;9.530;2024-03-02T11:19:05;15.00;99.60
2260;DHT22;333;48.800;9.530;2024-03-02T11:21:34;15.30;99.60
2260;DHT22;333;48.800;9.530;2024-03-02T11:24:30;15.70;99.60
2260;DHT22;333;48.800;9.530;2024-03-02T11:27:02;15.30;99.60
2260;DHT22;333;48.800;9.530;2024-03-02T11:29:51;14.90;99.60
2260;DHT22;333;48.800;9.530;2024-03-02T11:32:20;15.20;99.60
2260;DHT22;333;48.800;9.530;2024-03-02T11:34:49;15.50;99.60
2260;DHT22;333;48.800;9.530;2024-03-02T11:37:17;15.20;99.60
2260;DHT22;333;48.800;9.530;2024-03-02T11:39:46;15.20;99.60
2260;DHT22;333;48.800;9.530;2024-03-02T11:42:15;15.10;99.60
2260;DHT22;333;48.800;9.530;2024-03-02T11:44:43;15.30;99.60
2260;DHT22;333;48.800;9.530;2024-03-02T11:47:12;15.40;99.60
2260;DHT22;333;48.800;9.530;2024-03-02T11:49:42;15.70;99.60
2260;DHT22;333;48.800;9.530;2024-03-02T11:52:11;16.10;99.60
2260;DHT22;333;48.800;9.530;2024-03-02T11:54:39;16.60;99.60
2260;DHT22;333;48.800;9.530;2024-03-02T11:57:14;16.90;99.60
2260;DHT22;333;48.800;9.530;2024-03-02T11:59:41;17.30;99.10
2260;DHT22;333;48.800;9.530;2024-03-02T12:02:15;16.90;98.30
2260;DHT22;333;48.800;9.530;2024-03-02T12:04:43;16.30;98.80
2260;DHT22;333;48.800;9.530;2024-03-02T12:07:11;16.30;99.60
2260;DHT22;333;48.800;9.530;2024-03-02T12:09:39;16.70;99.60
2260;DHT22;333;48.800;9.530;2024-03-02T12:12:06;17.10;97.90
2260;DHT22;333;48.800;9.530;2024-03-02T12:14:36;17.50;96.30
2260;DHT22;333;48.800;9.530;2024-03-02T12:17:04;16.70;97.00
2260;DHT22;333;48.800;9.530;2024-03-02T12:19:32;16.60;97.40
2260;DHT22;333;48.800;9.530;2024-03-02T12:21:59;16.70;97.00
2260;DHT22;333;48.800;9.530;2024-03-02T12:24:28;16.90;96.40
2260;DHT22;333;48.800;9.530;2024-03-02T12:26:55;16.80;95.90
2260;DHT22;333;48.800;9.530;2024-03-02T12:29:23;17.20;95.20
2260;DHT22;333;48.800;9.530;2024-03-02T12:31:52;17.70;93.30
2260;DHT22;333;48.800;9.530;2024-03-02T12:34:21;17.50;91.60
2260;DHT22;333;48.800;9.530;2024-03-02T12:36:48;17.40;92.20
2260;DHT22;333;48.800;9.530;2024-03-02T12:39:19;17.20;90.90
2260;DHT22;333;48.800;9.530;2024-03-02T12:41:49;17.00;91.50
2260;DHT22;333;48.800;9.530;2024-03-02T12:44:17;17.30;92.90
2260;DHT22;333;48.800;9.530;2024-03-02T12:46:44;17.40;90.80
2260;DHT22;333;48.800;9.530;2024-03-02T12:49:15;17.40;91.30
2260;DHT22;333;48.800;9.530;2024-03-02T12:51:43;17.40;91.40
2260;DHT22;333;48.800;9.530;2024-03-02T12:54:12;17.00;89.90
2260;DHT22;333;48.800;9.530;2024-03-02T12:56:41;16.90;90.50
2260;DHT22;333;48.800;9.530;2024-03-02T12:59:18;17.00;90.80
2260;DHT22;333;48.800;9.530;2024-03-02T13:01:50;17.20;90.90
2260;DHT22;333;48.800;9.530;2024-03-02T13:04:22;17.70;90.30
2260;DHT22;333;48.800;9.530;2024-03-02T13:06:49;18.00;87.30
2260;DHT22;333;48.800;9.530;2024-03-02T13:09:17;18.00;85.90
2260;DHT22;333;48.800;9.530;2024-03-02T13:11:44;17.90;85.20
2260;DHT22;333;48.800;9.530;2024-03-02T13:14:12;17.80;86.60
2260;DHT22;333;48.800;9.530;2024-03-02T13:16:39;18.10;82.80
2260;DHT22;333;48.800;9.530;2024-03-02T13:19:07;18.20;79.50
2260;DHT22;333;48.800;9.530;2024-03-02T13:21:36;18.10;79.90
2260;DHT22;333;48.800;9.530;2024-03-02T13:24:03;18.20;80.70
2260;DHT22;333;48.800;9.530;2024-03-02T13:26:30;18.20;81.20
2260;DHT22;333;48.800;9.530;2024-03-02T13:28:57;18.70;80.20
2260;DHT22;333;48.800;9.530;2024-03-02T13:31:24;18.80;80.00
2260;DHT22;333;48.800;9.530;2024-03-02T13:33:51;18.60;80.90
2260;DHT22;333;48.800;9.530;2024-03-02T13:36:18;18.90;80.10
2260;DHT22;333;48.800;9.530;2024-03-02T13:38:47;19.00;79.60
2260;DHT22;333;48.800;9.530;2024-03-02T13:41:14;18.80;78.20
2260;DHT22;333;48.800;9.530;2024-03-02T13:43:40;18.40;77.70
2260;DHT22;333;48.800;9.530;2024-03-02T13:46:10;18.50;80.40
2260;DHT22;333;48.800;9.530;2024-03-02T13:48:37;19.10;78.70
2260;DHT22;333;48.800;9.530;2024-03-02T13:51:04;18.80;79.90
2260;DHT22;333;48.800;9.530;2024-03-02T13:53:31;18.80;79.80
2260;DHT22;333;48.800;9.530;2024-03-02T13:56:00;18.80;81.50
2260;DHT22;333;48.800;9.530;2024-03-02T13:58:27;19.30;81.10
2260;DHT22;333;48.800;9.530;2024-03-02T14:00:54;19.30;82.30
2260;DHT22;333;48.800;9.530;2024-03-02T14:03:22;19.50;83.00
2260;DHT22;333;48.800;9.530;2024-03-02T14:05:49;19.60;81.90
2260;DHT22;333;48.800;9.530;2024-03-02T14:08:18;19.80;81.60
2260;DHT22;333;48.800;9.530;2024-03-02T14:10:46;19.30;83.90
2260;DHT22;333;48.800;9.530;2024-03-02T14:13:14;19.40;83.40
2260;DHT22;333;48.800;9.530;2024-03-02T14:15:41;19.30;84.50
2260;DHT22;333;48.800;9.530;2024-03-02T14:18:08;19.30;85.10
2260;DHT22;333;48.800;9.530;2024-03-02T14:20:36;19.50;84.80
2260;DHT22;333;48.800;9.530;2024-03-02T14:23:09;19.20;83.80
2260;DHT22;333;48.800;9.530;2024-03-02T14:25:36;19.50;83.90
2260;DHT22;333;48.800;9.530;2024-03-02T14:28:04;19.30;83.30
2260;DHT22;333;48.800;9.530;2024-03-02T14:30:32;19.00;83.70
2260;DHT22;333;48.800;9.530;2024-03-02T14:32:59;19.20;83.20
2260;DHT22;333;48.800;9.530;2024-03-02T14:35:26;19.30;82.60
2260;DHT22;333;48.800;9.530;2024-03-02T14:37:54;19.60;82.20
2260;DHT22;333;48.800;9.530;2024-03-02T14:40:23;19.50;80.50
2260;DHT22;333;48.800;9.530;2024-03-02T14:42:52;19.90;81.20
2260;DHT22;333;48.800;9.530;2024-03-02T14:45:19;19.40;82.00
2260;DHT22;333;48.800;9.530;2024-03-02T14:47:47;19.60;83.30
2260;DHT22;333;48.800;9.530;2024-03-02T14:50:15;19.30;84.60
2260;DHT22;333;48.800;9.530;2024-03-02T14:52:42;19.20;85.20
2260;DHT22;333;48.800;9.530;2024-03-02T14:55:10;18.90;85.70
2260;DHT22;333;48.800;9.530;2024-03-02T14:57:37;18.50;85.30
2260;DHT22;333;48.800;9.530;2024-03-02T15:00:05;17.80;87.10
2260;DHT22;333;48.800;9.530;2024-03-02T15:02:33;17.80;88.50
2260;DHT22;333;48.800;9.530;2024-03-02T15:07:37;18.10;88.60
2260;DHT22;333;48.800;9.530;2024-03-02T15:10:05;17.50;85.80
2260;DHT22;333;48.800;9.530;2024-03-02T15:12:33;17.50;87.30
2260;DHT22;333;48.800;9.530;2024-03-02T15:15:00;17.50;87.10
2260;DHT22;333;48.800;9.530;2024-03-02T15:17:27;17.70;87.60
2260;DHT22;333;48.800;9.530;2024-03-02T15:19:54;17.80;86.90
2260;DHT22;333;48.800;9.530;2024-03-02T15:22:22;18.10;87.40
2260;DHT22;333;48.800;9.530;2024-03-02T15:24:50;18.30;87.00
2260;DHT22;333;48.800;9.530;2024-03-02T15:27:17;19.00;84.00
2260;DHT22;333;48.800;9.530;2024-03-02T15:29:44;19.50;83.40
2260;DHT22;333;48.800;9.530;2024-03-02T15:32:11;19.80;83.50
2260;DHT22;333;48.800;9.530;2024-03-02T15:34:38;19.60;82.70
2260;DHT22;333;48.800;9.530;2024-03-02T15:37:05;18.50;85.90
2260;DHT22;333;48.800;9.530;2024-03-02T15:39:32;18.10;88.10
2260;DHT22;333;48.800;9.530;2024-03-02T15:42:00;17.30;91.10
2260;DHT22;333;48.800;9.530;2024-03-02T15:44:27;17.20;92.50
2260;DHT22;333;48.800;9.530;2024-03-02T15:46:54;16.90;93.20
2260;DHT22;333;48.800;9.530;2024-03-02T15:49:20;16.40;94.80
2260;DHT22;333;48.800;9.530;2024-03-02T15:51:47;15.70;96.30
2260;DHT22;333;48.800;9.530;2024-03-02T15:54:14;15.40;97.80
2260;DHT22;333;48.800;9.530;2024-03-02T15:56:41;15.20;98.70
2260;DHT22;333;48.800;9.530;2024-03-02T15:59:10;15.10;99.30
2260;DHT22;333;48.800;9.530;2024-03-02T16:01:36;14.70;99.60
2260;DHT22;333;48.800;9.530;2024-03-02T16:04:04;14.60;99.60
2260;DHT22;333;48.800;9.530;2024-03-02T16:06:31;14.40;99.60
2260;DHT22;333;48.800;9.530;2024-03-02T16:08:58;14.20;99.60
2260;DHT22;333;48.800;9.530;2024-03-02T16:11:25;14.20;99.60
2260;DHT22;333;48.800;9.530;2024-03-02T16:13:52;14.00;99.60
2260;DHT22;333;48.800;9.530;2024-03-02T16:16:20;13.90;99.60
2260;DHT22;333;48.800;9.530;2024-03-02T16:18:47;13.80;99.60
2260;DHT22;333;48.800;9.530;2024-03-02T16:21:14;13.80;99.60
2260;DHT22;333;48.800;9.530;2024-03-02T16:23:41;13.70;99.60
2260;DHT22;333;48.800;9.530;2024-03-02T16:26:08;13.60;99.60
2260;DHT22;333;48.800;9.530;2024-03-02T16:28:35;13.60;99.60
2260;DHT22;333;48.800;9.530;2024-03-02T16:31:03;13.50;99.60
2260;DHT22;333;48.800;9.530;2024-03-02T16:33:31;13.30;99.60
2260;DHT22;333;48.800;9.530;2024-03-02T16:35:58;13.40;99.60
2260;DHT22;333;48.800;9.530;2024-03-02T16:38:25;13.20;99.60